Indian Springs, Indiana
Current Conditions -  °F | °C
As of 12:55 AM on Monday 24 Nov 2014 (Local Time) from KDCY Reporting Station
Overcast Overcast  
Wind Chill: 58°   Ceiling: 1200
Heat Index: 58°   Visibility: 10mi
Dew Point: 58°   Wind: 15mph
Humidity: 100%   Direction: 210°SSW
Pressure: 29.27"   Gusts: 21mph
Location:  38.6262°N, 86.7615°W
Report Text: KDCY 240655Z AUTO 21013G18KT 10SM BKN012 OVC020 14/14 A2927 RMK AO2 T01420142
Loading
Personal Weather Stations






























Interactive Weather Map New forecast layout! Learn more

10-Day Weather Forecast

Advertisements
Track Severe Weather on mobile